sensor_id;sensor_type;location;lat;lon;timestamp;P1;durP1;ratioP1;P2;durP2;ratioP2
2338;SDS011;1180;51.438;6.978;2023-02-24T00:01:55;26.67;;;10.23;;
2338;SDS011;1180;51.438;6.978;2023-02-24T00:04:26;23.67;;;7.90;;
2338;SDS011;1180;51.438;6.978;2023-02-24T00:06:53;19.73;;;7.70;;
2338;SDS011;1180;51.438;6.978;2023-02-24T00:09:24;17.23;;;8.17;;
2338;SDS011;1180;51.438;6.978;2023-02-24T00:14:17;16.90;;;6.20;;
2338;SDS011;1180;51.438;6.978;2023-02-24T00:16:45;18.20;;;6.23;;
2338;SDS011;1180;51.438;6.978;2023-02-24T00:19:13;20.63;;;4.70;;
2338;SDS011;1180;51.438;6.978;2023-02-24T00:21:40;18.77;;;5.60;;
2338;SDS011;1180;51.438;6.978;2023-02-24T00:24:06;18.07;;;5.20;;
2338;SDS011;1180;51.438;6.978;2023-02-24T00:26:32;12.33;;;4.30;;
2338;SDS011;1180;51.438;6.978;2023-02-24T00:28:58;11.77;;;4.10;;
2338;SDS011;1180;51.438;6.978;2023-02-24T00:31:27;20.70;;;5.17;;
2338;SDS011;1180;51.438;6.978;2023-02-24T00:34:00;22.57;;;5.67;;
2338;SDS011;1180;51.438;6.978;2023-02-24T00:36:27;13.67;;;4.77;;
2338;SDS011;1180;51.438;6.978;2023-02-24T00:38:57;14.17;;;5.37;;
2338;SDS011;1180;51.438;6.978;2023-02-24T00:41:28;17.13;;;4.10;;
2338;SDS011;1180;51.438;6.978;2023-02-24T00:43:56;23.73;;;6.50;;
2338;SDS011;1180;51.438;6.978;2023-02-24T00:46:24;13.67;;;4.63;;
2338;SDS011;1180;51.438;6.978;2023-02-24T00:48:51;14.33;;;4.00;;
2338;SDS011;1180;51.438;6.978;2023-02-24T00:51:19;16.90;;;5.23;;
2338;SDS011;1180;51.438;6.978;2023-02-24T00:53:53;20.93;;;4.77;;
2338;SDS011;1180;51.438;6.978;2023-02-24T00:56:21;18.87;;;4.33;;
2338;SDS011;1180;51.438;6.978;2023-02-24T00:58:48;9.70;;;4.63;;
2338;SDS011;1180;51.438;6.978;2023-02-24T01:01:14;17.47;;;4.97;;
2338;SDS011;1180;51.438;6.978;2023-02-24T01:03:45;17.87;;;5.50;;
2338;SDS011;1180;51.438;6.978;2023-02-24T01:06:13;15.87;;;5.03;;
2338;SDS011;1180;51.438;6.978;2023-02-24T01:08:38;19.33;;;5.83;;
2338;SDS011;1180;51.438;6.978;2023-02-24T01:11:07;15.80;;;4.67;;
2338;SDS011;1180;51.438;6.978;2023-02-24T01:13:51;17.80;;;5.83;;
2338;SDS011;1180;51.438;6.978;2023-02-24T01:16:17;16.60;;;5.57;;
2338;SDS011;1180;51.438;6.978;2023-02-24T01:18:45;17.70;;;4.90;;
2338;SDS011;1180;51.438;6.978;2023-02-24T01:21:12;12.20;;;4.43;;
2338;SDS011;1180;51.438;6.978;2023-02-24T01:23:39;12.63;;;3.63;;
2338;SDS011;1180;51.438;6.978;2023-02-24T01:26:05;18.83;;;4.67;;
2338;SDS011;1180;51.438;6.978;2023-02-24T01:28:30;12.67;;;5.13;;
2338;SDS011;1180;51.438;6.978;2023-02-24T01:30:59;17.97;;;5.27;;
2338;SDS011;1180;51.438;6.978;2023-02-24T01:33:29;19.40;;;4.03;;
2338;SDS011;1180;51.438;6.978;2023-02-24T01:36:03;14.03;;;5.03;;
2338;SDS011;1180;51.438;6.978;2023-02-24T01:38:37;14.23;;;4.00;;
2338;SDS011;1180;51.438;6.978;2023-02-24T01:41:03;18.20;;;4.90;;
2338;SDS011;1180;51.438;6.978;2023-02-24T01:43:29;24.47;;;6.67;;
2338;SDS011;1180;51.438;6.978;2023-02-24T01:45:56;8.13;;;3.43;;
2338;SDS011;1180;51.438;6.978;2023-02-24T01:48:21;20.57;;;5.63;;
2338;SDS011;1180;51.438;6.978;2023-02-24T01:50:47;12.73;;;3.70;;
2338;SDS011;1180;51.438;6.978;2023-02-24T01:53:15;12.10;;;5.07;;
2338;SDS011;1180;51.438;6.978;2023-02-24T01:55:45;14.73;;;4.37;;
2338;SDS011;1180;51.438;6.978;2023-02-24T01:58:23;14.25;;;3.22;;
2338;SDS011;1180;51.438;6.978;2023-02-24T02:00:52;19.43;;;4.63;;
2338;SDS011;1180;51.438;6.978;2023-02-24T02:03:31;13.33;;;4.60;;
2338;SDS011;1180;51.438;6.978;2023-02-24T02:06:03;11.90;;;3.90;;
2338;SDS011;1180;51.438;6.978;2023-02-24T02:08:30;21.20;;;4.53;;
2338;SDS011;1180;51.438;6.978;2023-02-24T02:11:03;17.93;;;5.07;;
2338;SDS011;1180;51.438;6.978;2023-02-24T02:13:31;12.17;;;4.17;;
2338;SDS011;1180;51.438;6.978;2023-02-24T02:16:12;16.50;;;4.93;;
2338;SDS011;1180;51.438;6.978;2023-02-24T02:22:14;12.80;;;3.57;;
2338;SDS011;1180;51.438;6.978;2023-02-24T02:27:33;12.00;;;4.53;;
2338;SDS011;1180;51.438;6.978;2023-02-24T02:35:35;13.80;;;4.23;;
2338;SDS011;1180;51.438;6.978;2023-02-24T02:38:13;13.17;;;3.27;;
2338;SDS011;1180;51.438;6.978;2023-02-24T02:46:37;7.53;;;3.13;;
2338;SDS011;1180;51.438;6.978;2023-02-24T02:49:18;10.90;;;3.00;;
2338;SDS011;1180;51.438;6.978;2023-02-24T02:51:52;11.67;;;3.63;;
2338;SDS011;1180;51.438;6.978;2023-02-24T02:54:29;10.90;;;2.70;;
2338;SDS011;1180;51.438;6.978;2023-02-24T02:57:05;19.53;;;4.27;;
2338;SDS011;1180;51.438;6.978;2023-02-24T02:59:36;16.23;;;2.97;;
2338;SDS011;1180;51.438;6.978;2023-02-24T03:02:08;11.60;;;3.47;;
2338;SDS011;1180;51.438;6.978;2023-02-24T03:04:41;9.35;;;2.78;;
2338;SDS011;1180;51.438;6.978;2023-02-24T03:07:10;12.90;;;3.00;;
2338;SDS011;1180;51.438;6.978;2023-02-24T03:09:40;11.37;;;3.27;;
2338;SDS011;1180;51.438;6.978;2023-02-24T03:12:11;13.20;;;3.17;;
2338;SDS011;1180;51.438;6.978;2023-02-24T03:14:42;16.63;;;3.10;;
2338;SDS011;1180;51.438;6.978;2023-02-24T03:17:16;15.97;;;3.30;;
2338;SDS011;1180;51.438;6.978;2023-02-24T03:19:46;11.17;;;2.90;;
2338;SDS011;1180;51.438;6.978;2023-02-24T03:22:27;5.40;;;2.87;;
2338;SDS011;1180;51.438;6.978;2023-02-24T03:24:59;14.87;;;4.07;;
2338;SDS011;1180;51.438;6.978;2023-02-24T03:27:30;17.73;;;3.63;;
2338;SDS011;1180;51.438;6.978;2023-02-24T03:30:07;19.53;;;3.63;;
2338;SDS011;1180;51.438;6.978;2023-02-24T03:32:41;7.70;;;2.90;;
2338;SDS011;1180;51.438;6.978;2023-02-24T03:35:29;12.80;;;4.07;;
2338;SDS011;1180;51.438;6.978;2023-02-24T03:37:58;11.10;;;3.33;;
2338;SDS011;1180;51.438;6.978;2023-02-24T03:40:25;12.20;;;3.30;;
2338;SDS011;1180;51.438;6.978;2023-02-24T03:42:57;9.90;;;3.43;;
2338;SDS011;1180;51.438;6.978;2023-02-24T03:45:30;8.00;;;3.03;;
2338;SDS011;1180;51.438;6.978;2023-02-24T03:48:01;13.30;;;3.90;;
2338;SDS011;1180;51.438;6.978;2023-02-24T03:50:28;12.87;;;3.17;;
2338;SDS011;1180;51.438;6.978;2023-02-24T04:01:00;15.67;;;3.57;;
2338;SDS011;1180;51.438;6.978;2023-02-24T04:08:51;15.53;;;3.37;;
2338;SDS011;1180;51.438;6.978;2023-02-24T04:11:45;13.00;;;3.20;;
2338;SDS011;1180;51.438;6.978;2023-02-24T04:17:29;10.83;;;3.87;;
2338;SDS011;1180;51.438;6.978;2023-02-24T04:20:02;11.73;;;3.20;;
2338;SDS011;1180;51.438;6.978;2023-02-24T04:22:37;19.02;;;4.05;;
2338;SDS011;1180;51.438;6.978;2023-02-24T04:25:05;8.30;;;3.00;;
2338;SDS011;1180;51.438;6.978;2023-02-24T04:27:37;8.40;;;3.20;;
2338;SDS011;1180;51.438;6.978;2023-02-24T04:30:05;19.53;;;3.97;;
2338;SDS011;1180;51.438;6.978;2023-02-24T04:32:34;11.77;;;3.95;;
2338;SDS011;1180;51.438;6.978;2023-02-24T04:35:00;14.70;;;3.23;;
2338;SDS011;1180;51.438;6.978;2023-02-24T04:37:29;8.70;;;2.87;;
2338;SDS011;1180;51.438;6.978;2023-02-24T04:39:57;10.15;;;3.80;;
2338;SDS011;1180;51.438;6.978;2023-02-24T04:42:24;13.13;;;3.57;;
2338;SDS011;1180;51.438;6.978;2023-02-24T04:44:49;11.00;;;4.00;;
2338;SDS011;1180;51.438;6.978;2023-02-24T04:47:14;13.53;;;4.13;;
2338;SDS011;1180;51.438;6.978;2023-02-24T04:49:40;19.57;;;5.63;;
2338;SDS011;1180;51.438;6.978;2023-02-24T04:52:06;12.73;;;3.30;;
2338;SDS011;1180;51.438;6.978;2023-02-24T04:54:33;13.63;;;3.13;;
2338;SDS011;1180;51.438;6.978;2023-02-24T04:56:59;13.50;;;3.90;;
2338;SDS011;1180;51.438;6.978;2023-02-24T04:59:25;15.63;;;4.60;;
2338;SDS011;1180;51.438;6.978;2023-02-24T05:01:51;9.43;;;3.53;;
2338;SDS011;1180;51.438;6.978;2023-02-24T05:04:19;6.83;;;3.40;;
2338;SDS011;1180;51.438;6.978;2023-02-24T05:06:45;6.57;;;3.20;;
2338;SDS011;1180;51.438;6.978;2023-02-24T05:09:11;12.63;;;3.77;;
2338;SDS011;1180;51.438;6.978;2023-02-24T05:11:39;14.00;;;4.37;;
2338;SDS011;1180;51.438;6.978;2023-02-24T05:14:07;9.10;;;3.70;;
2338;SDS011;1180;51.438;6.978;2023-02-24T05:16:42;10.60;;;3.60;;
2338;SDS011;1180;51.438;6.978;2023-02-24T05:19:09;10.63;;;3.40;;
2338;SDS011;1180;51.438;6.978;2023-02-24T05:21:55;9.20;;;3.20;;
2338;SDS011;1180;51.438;6.978;2023-02-24T05:24:24;16.30;;;3.83;;
2338;SDS011;1180;51.438;6.978;2023-02-24T05:26:52;10.43;;;3.40;;
2338;SDS011;1180;51.438;6.978;2023-02-24T05:29:22;11.60;;;3.90;;
2338;SDS011;1180;51.438;6.978;2023-02-24T05:31:50;11.63;;;4.00;;
2338;SDS011;1180;51.438;6.978;2023-02-24T05:34:18;15.80;;;3.60;;
2338;SDS011;1180;51.438;6.978;2023-02-24T05:36:43;12.93;;;4.40;;
2338;SDS011;1180;51.438;6.978;2023-02-24T05:39:09;9.63;;;4.53;;
2338;SDS011;1180;51.438;6.978;2023-02-24T05:41:37;10.80;;;3.87;;
2338;SDS011;1180;51.438;6.978;2023-02-24T05:44:06;14.57;;;5.17;;
2338;SDS011;1180;51.438;6.978;2023-02-24T05:46:36;16.60;;;4.30;;
2338;SDS011;1180;51.438;6.978;2023-02-24T05:49:05;15.73;;;4.63;;
2338;SDS011;1180;51.438;6.978;2023-02-24T05:51:36;18.30;;;5.77;;
2338;SDS011;1180;51.438;6.978;2023-02-24T05:54:07;14.83;;;4.60;;
2338;SDS011;1180;51.438;6.978;2023-02-24T05:56:37;10.60;;;3.97;;
2338;SDS011;1180;51.438;6.978;2023-02-24T05:59:05;15.63;;;4.03;;
2338;SDS011;1180;51.438;6.978;2023-02-24T06:01:33;23.60;;;5.20;;
2338;SDS011;1180;51.438;6.978;2023-02-24T06:04:02;8.70;;;3.90;;
2338;SDS011;1180;51.438;6.978;2023-02-24T06:06:35;17.90;;;5.03;;
2338;SDS011;1180;51.438;6.978;2023-02-24T06:09:06;11.63;;;4.43;;
2338;SDS011;1180;51.438;6.978;2023-02-24T06:11:37;6.93;;;3.00;;
2338;SDS011;1180;51.438;6.978;2023-02-24T06:14:04;8.70;;;3.87;;
2338;SDS011;1180;51.438;6.978;2023-02-24T06:16:31;14.50;;;4.40;;
2338;SDS011;1180;51.438;6.978;2023-02-24T06:18:57;15.60;;;4.50;;
2338;SDS011;1180;51.438;6.978;2023-02-24T06:21:23;10.20;;;4.10;;
2338;SDS011;1180;51.438;6.978;2023-02-24T06:23:50;14.75;;;4.88;;
2338;SDS011;1180;51.438;6.978;2023-02-24T06:26:15;9.33;;;4.20;;
2338;SDS011;1180;51.438;6.978;2023-02-24T06:28:43;12.73;;;4.30;;
2338;SDS011;1180;51.438;6.978;2023-02-24T06:31:09;13.50;;;4.87;;
2338;SDS011;1180;51.438;6.978;2023-02-24T06:33:36;10.37;;;3.90;;
2338;SDS011;1180;51.438;6.978;2023-02-24T06:36:02;14.67;;;3.77;;
2338;SDS011;1180;51.438;6.978;2023-02-24T06:38:32;12.13;;;4.33;;
2338;SDS011;1180;51.438;6.978;2023-02-24T06:41:00;12.60;;;4.70;;
2338;SDS011;1180;51.438;6.978;2023-02-24T06:43:28;9.80;;;3.30;;
2338;SDS011;1180;51.438;6.978;2023-02-24T06:45:54;13.57;;;4.07;;
2338;SDS011;1180;51.438;6.978;2023-02-24T06:48:19;12.00;;;3.50;;
2338;SDS011;1180;51.438;6.978;2023-02-24T06:50:46;7.85;;;3.70;;
2338;SDS011;1180;51.438;6.978;2023-02-24T06:53:14;11.38;;;4.47;;
2338;SDS011;1180;51.438;6.978;2023-02-24T06:55:46;6.57;;;3.20;;
2338;SDS011;1180;51.438;6.978;2023-02-24T06:58:16;9.97;;;4.60;;
2338;SDS011;1180;51.438;6.978;2023-02-24T07:00:43;8.93;;;3.43;;
2338;SDS011;1180;51.438;6.978;2023-02-24T07:03:20;14.77;;;3.67;;
2338;SDS011;1180;51.438;6.978;2023-02-24T07:06:03;7.30;;;3.33;;
2338;SDS011;1180;51.438;6.978;2023-02-24T07:08:44;9.67;;;3.43;;
2338;SDS011;1180;51.438;6.978;2023-02-24T07:11:11;6.07;;;3.47;;
2338;SDS011;1180;51.438;6.978;2023-02-24T07:13:38;9.63;;;3.27;;
2338;SDS011;1180;51.438;6.978;2023-02-24T07:16:05;9.67;;;3.80;;
2338;SDS011;1180;51.438;6.978;2023-02-24T07:18:34;8.90;;;3.33;;
2338;SDS011;1180;51.438;6.978;2023-02-24T07:21:04;7.73;;;3.30;;
2338;SDS011;1180;51.438;6.978;2023-02-24T07:23:36;10.97;;;3.00;;
2338;SDS011;1180;51.438;6.978;2023-02-24T07:26:06;9.47;;;3.30;;
2338;SDS011;1180;51.438;6.978;2023-02-24T07:28:39;11.87;;;2.87;;
2338;SDS011;1180;51.438;6.978;2023-02-24T07:31:12;6.60;;;2.65;;
2338;SDS011;1180;51.438;6.978;2023-02-24T07:33:40;13.43;;;3.40;;
2338;SDS011;1180;51.438;6.978;2023-02-24T07:36:11;4.90;;;1.93;;
2338;SDS011;1180;51.438;6.978;2023-02-24T07:38:47;5.17;;;2.93;;
2338;SDS011;1180;51.438;6.978;2023-02-24T07:41:16;4.40;;;2.47;;
2338;SDS011;1180;51.438;6.978;2023-02-24T07:43:43;6.83;;;2.47;;
2338;SDS011;1180;51.438;6.978;2023-02-24T07:46:14;6.00;;;2.60;;
2338;SDS011;1180;51.438;6.978;2023-02-24T07:48:40;6.43;;;2.30;;
2338;SDS011;1180;51.438;6.978;2023-02-24T07:51:06;5.53;;;2.83;;
2338;SDS011;1180;51.438;6.978;2023-02-24T07:53:32;7.43;;;2.13;;
2338;SDS011;1180;51.438;6.978;2023-02-24T07:55:58;8.50;;;3.07;;
2338;SDS011;1180;51.438;6.978;2023-02-24T07:58:23;10.57;;;3.13;;
2338;SDS011;1180;51.438;6.978;2023-02-24T08:00:48;8.43;;;2.73;;
2338;SDS011;1180;51.438;6.978;2023-02-24T08:03:23;16.33;;;3.03;;
2338;SDS011;1180;51.438;6.978;2023-02-24T08:05:53;12.20;;;2.23;;
2338;SDS011;1180;51.438;6.978;2023-02-24T08:08:19;8.07;;;3.20;;
2338;SDS011;1180;51.438;6.978;2023-02-24T08:10:45;8.73;;;2.30;;
2338;SDS011;1180;51.438;6.978;2023-02-24T08:13:11;9.70;;;2.20;;
2338;SDS011;1180;51.438;6.978;2023-02-24T08:15:36;10.83;;;2.33;;
2338;SDS011;1180;51.438;6.978;2023-02-24T08:18:02;10.23;;;2.87;;
2338;SDS011;1180;51.438;6.978;2023-02-24T08:20:30;10.97;;;2.93;;
2338;SDS011;1180;51.438;6.978;2023-02-24T08:23:00;6.30;;;2.67;;
2338;SDS011;1180;51.438;6.978;2023-02-24T08:25:30;5.80;;;2.23;;
2338;SDS011;1180;51.438;6.978;2023-02-24T08:28:03;8.70;;;2.47;;
2338;SDS011;1180;51.438;6.978;2023-02-24T08:30:31;12.47;;;2.70;;
2338;SDS011;1180;51.438;6.978;2023-02-24T08:33:03;8.13;;;2.27;;
2338;SDS011;1180;51.438;6.978;2023-02-24T08:35:30;6.90;;;2.70;;
2338;SDS011;1180;51.438;6.978;2023-02-24T08:40:40;6.20;;;2.10;;
2338;SDS011;1180;51.438;6.978;2023-02-24T08:43:29;6.10;;;1.93;;
2338;SDS011;1180;51.438;6.978;2023-02-24T08:49:03;9.93;;;3.30;;
2338;SDS011;1180;51.438;6.978;2023-02-24T08:51:35;11.10;;;4.00;;
2338;SDS011;1180;51.438;6.978;2023-02-24T08:54:07;11.23;;;3.93;;
2338;SDS011;1180;51.438;6.978;2023-02-24T08:56:39;10.17;;;4.20;;
2338;SDS011;1180;51.438;6.978;2023-02-24T08:59:07;14.60;;;3.80;;
2338;SDS011;1180;51.438;6.978;2023-02-24T09:01:53;13.57;;;3.70;;
2338;SDS011;1180;51.438;6.978;2023-02-24T09:04:38;14.60;;;3.70;;
2338;SDS011;1180;51.438;6.978;2023-02-24T09:07:04;11.00;;;3.73;;
2338;SDS011;1180;51.438;6.978;2023-02-24T09:09:35;14.43;;;4.77;;
2338;SDS011;1180;51.438;6.978;2023-02-24T09:12:05;7.17;;;3.40;;
2338;SDS011;1180;51.438;6.978;2023-02-24T09:14:32;10.17;;;3.67;;
2338;SDS011;1180;51.438;6.978;2023-02-24T09:17:00;12.13;;;4.23;;
2338;SDS011;1180;51.438;6.978;2023-02-24T09:19:48;8.20;;;3.33;;
2338;SDS011;1180;51.438;6.978;2023-02-24T09:22:25;11.30;;;4.40;;
2338;SDS011;1180;51.438;6.978;2023-02-24T09:27:53;9.57;;;3.90;;
2338;SDS011;1180;51.438;6.978;2023-02-24T09:30:32;9.07;;;3.00;;
2338;SDS011;1180;51.438;6.978;2023-02-24T09:33:31;9.80;;;3.43;;
2338;SDS011;1180;51.438;6.978;2023-02-24T09:38:37;9.43;;;3.97;;
2338;SDS011;1180;51.438;6.978;2023-02-24T09:41:26;10.80;;;3.43;;
2338;SDS011;1180;51.438;6.978;2023-02-24T09:43:57;9.87;;;3.27;;
2338;SDS011;1180;51.438;6.978;2023-02-24T09:46:29;14.10;;;3.57;;
2338;SDS011;1180;51.438;6.978;2023-02-24T09:49:04;7.00;;;2.53;;
2338;SDS011;1180;51.438;6.978;2023-02-24T09:51:38;9.57;;;3.47;;
2338;SDS011;1180;51.438;6.978;2023-02-24T09:54:11;7.90;;;3.13;;
2338;SDS011;1180;51.438;6.978;2023-02-24T09:56:49;8.07;;;3.03;;
2338;SDS011;1180;51.438;6.978;2023-02-24T09:59:35;9.23;;;2.50;;
2338;SDS011;1180;51.438;6.978;2023-02-24T10:05:17;10.40;;;3.23;;
2338;SDS011;1180;51.438;6.978;2023-02-24T10:07:51;6.07;;;2.50;;
2338;SDS011;1180;51.438;6.978;2023-02-24T10:13:14;13.20;;;2.57;;
2338;SDS011;1180;51.438;6.978;2023-02-24T10:15:54;7.37;;;2.53;;
2338;SDS011;1180;51.438;6.978;2023-02-24T10:21:29;10.80;;;3.17;;
2338;SDS011;1180;51.438;6.978;2023-02-24T10:24:31;10.90;;;2.63;;
2338;SDS011;1180;51.438;6.978;2023-02-24T10:29:43;13.20;;;3.00;;
2338;SDS011;1180;51.438;6.978;2023-02-24T10:35:18;8.07;;;2.60;;
2338;SDS011;1180;51.438;6.978;2023-02-24T10:37:49;5.10;;;3.13;;
2338;SDS011;1180;51.438;6.978;2023-02-24T10:40:16;7.80;;;3.00;;
2338;SDS011;1180;51.438;6.978;2023-02-24T10:43:07;9.23;;;3.17;;
2338;SDS011;1180;51.438;6.978;2023-02-24T10:45:41;6.80;;;3.40;;
2338;SDS011;1180;51.438;6.978;2023-02-24T10:48:22;4.47;;;2.73;;
2338;SDS011;1180;51.438;6.978;2023-02-24T10:50:50;10.07;;;2.80;;
2338;SDS011;1180;51.438;6.978;2023-02-24T10:53:19;9.80;;;2.63;;
2338;SDS011;1180;51.438;6.978;2023-02-24T10:55:54;9.57;;;3.27;;
2338;SDS011;1180;51.438;6.978;2023-02-24T10:58:58;6.43;;;2.50;;
2338;SDS011;1180;51.438;6.978;2023-02-24T11:01:44;17.50;;;3.50;;
2338;SDS011;1180;51.438;6.978;2023-02-24T11:04:31;8.23;;;4.33;;
2338;SDS011;1180;51.438;6.978;2023-02-24T11:07:18;10.83;;;3.60;;
2338;SDS011;1180;51.438;6.978;2023-02-24T11:10:14;7.90;;;3.00;;
2338;SDS011;1180;51.438;6.978;2023-02-24T11:12:49;7.13;;;3.17;;
2338;SDS011;1180;51.438;6.978;2023-02-24T11:15:52;5.30;;;3.30;;
2338;SDS011;1180;51.438;6.978;2023-02-24T11:18:38;9.63;;;4.03;;
2338;SDS011;1180;51.438;6.978;2023-02-24T11:21:05;6.30;;;3.00;;
2338;SDS011;1180;51.438;6.978;2023-02-24T11:23:34;10.37;;;4.60;;
2338;SDS011;1180;51.438;6.978;2023-02-24T11:26:23;6.60;;;3.30;;
2338;SDS011;1180;51.438;6.978;2023-02-24T11:31:38;11.83;;;3.67;;
2338;SDS011;1180;51.438;6.978;2023-02-24T11:37:11;11.67;;;4.00;;
2338;SDS011;1180;51.438;6.978;2023-02-24T11:47:57;8.17;;;3.70;;
2338;SDS011;1180;51.438;6.978;2023-02-24T11:50:38;8.93;;;3.97;;
2338;SDS011;1180;51.438;6.978;2023-02-24T11:53:15;9.97;;;4.87;;
2338;SDS011;1180;51.438;6.978;2023-02-24T11:55:49;8.70;;;4.43;;
2338;SDS011;1180;51.438;6.978;2023-02-24T11:58:23;15.67;;;4.57;;
2338;SDS011;1180;51.438;6.978;2023-02-24T12:01:00;12.47;;;5.63;;
2338;SDS011;1180;51.438;6.978;2023-02-24T12:06:29;10.43;;;4.27;;
2338;SDS011;1180;51.438;6.978;2023-02-24T12:09:12;7.73;;;3.47;;
2338;SDS011;1180;51.438;6.978;2023-02-24T12:17:09;6.20;;;3.90;;
2338;SDS011;1180;51.438;6.978;2023-02-24T12:19:53;10.13;;;4.10;;
2338;SDS011;1180;51.438;6.978;2023-02-24T12:22:24;13.33;;;5.50;;
2338;SDS011;1180;51.438;6.978;2023-02-24T12:24:55;8.47;;;4.00;;
2338;SDS011;1180;51.438;6.978;2023-02-24T12:30:33;6.75;;;3.72;;
2338;SDS011;1180;51.438;6.978;2023-02-24T12:38:42;16.23;;;6.37;;
2338;SDS011;1180;51.438;6.978;2023-02-24T12:41:34;9.40;;;4.90;;
2338;SDS011;1180;51.438;6.978;2023-02-24T12:44:14;9.20;;;4.10;;
2338;SDS011;1180;51.438;6.978;2023-02-24T12:47:08;17.88;;;5.18;;
2338;SDS011;1180;51.438;6.978;2023-02-24T12:52:36;9.40;;;4.13;;
2338;SDS011;1180;51.438;6.978;2023-02-24T12:58:37;11.73;;;5.43;;
2338;SDS011;1180;51.438;6.978;2023-02-24T13:12:02;9.70;;;5.03;;
2338;SDS011;1180;51.438;6.978;2023-02-24T13:14:37;10.60;;;6.07;;
2338;SDS011;1180;51.438;6.978;2023-02-24T13:17:14;9.80;;;5.60;;
2338;SDS011;1180;51.438;6.978;2023-02-24T13:19:44;10.27;;;6.67;;
2338;SDS011;1180;51.438;6.978;2023-02-24T13:24:35;16.30;;;6.40;;
2338;SDS011;1180;51.438;6.978;2023-02-24T13:27:22;10.93;;;6.10;;
2338;SDS011;1180;51.438;6.978;2023-02-24T13:29:56;17.20;;;8.47;;
2338;SDS011;1180;51.438;6.978;2023-02-24T13:32:38;14.97;;;8.17;;
2338;SDS011;1180;51.438;6.978;2023-02-24T13:37:44;18.37;;;10.90;;
2338;SDS011;1180;51.438;6.978;2023-02-24T13:53:37;14.73;;;9.05;;
2338;SDS011;1180;51.438;6.978;2023-02-24T14:02:17;16.52;;;9.00;;
2338;SDS011;1180;51.438;6.978;2023-02-24T14:04:54;11.83;;;8.90;;
2338;SDS011;1180;51.438;6.978;2023-02-24T14:07:25;19.63;;;9.77;;
2338;SDS011;1180;51.438;6.978;2023-02-24T14:09:55;18.83;;;10.13;;
2338;SDS011;1180;51.438;6.978;2023-02-24T14:12:26;12.17;;;9.67;;
2338;SDS011;1180;51.438;6.978;2023-02-24T14:14:54;16.83;;;11.70;;
2338;SDS011;1180;51.438;6.978;2023-02-24T14:17:28;21.53;;;11.77;;
2338;SDS011;1180;51.438;6.978;2023-02-24T14:22:46;19.00;;;11.70;;
2338;SDS011;1180;51.438;6.978;2023-02-24T14:25:13;15.03;;;11.30;;
2338;SDS011;1180;51.438;6.978;2023-02-24T14:27:41;13.73;;;10.57;;
2338;SDS011;1180;51.438;6.978;2023-02-24T14:30:19;13.67;;;10.40;;
2338;SDS011;1180;51.438;6.978;2023-02-24T14:32:46;12.50;;;9.47;;
2338;SDS011;1180;51.438;6.978;2023-02-24T14:35:45;12.70;;;9.00;;
2338;SDS011;1180;51.438;6.978;2023-02-24T14:38:16;11.00;;;8.67;;
2338;SDS011;1180;51.438;6.978;2023-02-24T14:40:52;14.97;;;8.57;;
2338;SDS011;1180;51.438;6.978;2023-02-24T14:43:17;13.30;;;8.87;;
2338;SDS011;1180;51.438;6.978;2023-02-24T14:45:46;14.13;;;8.77;;
2338;SDS011;1180;51.438;6.978;2023-02-24T14:48:27;12.27;;;8.37;;
2338;SDS011;1180;51.438;6.978;2023-02-24T14:50:59;14.40;;;10.03;;
2338;SDS011;1180;51.438;6.978;2023-02-24T14:53:27;10.83;;;8.03;;
2338;SDS011;1180;51.438;6.978;2023-02-24T14:55:56;18.80;;;9.17;;
2338;SDS011;1180;51.438;6.978;2023-02-24T15:01:14;17.33;;;9.87;;
2338;SDS011;1180;51.438;6.978;2023-02-24T15:03:49;13.50;;;8.33;;
2338;SDS011;1180;51.438;6.978;2023-02-24T15:06:19;9.77;;;7.87;;
2338;SDS011;1180;51.438;6.978;2023-02-24T15:08:49;12.63;;;8.00;;
2338;SDS011;1180;51.438;6.978;2023-02-24T15:11:22;12.37;;;8.93;;
2338;SDS011;1180;51.438;6.978;2023-02-24T15:18:56;18.63;;;10.00;;
2338;SDS011;1180;51.438;6.978;2023-02-24T15:24:01;16.67;;;9.70;;
2338;SDS011;1180;51.438;6.978;2023-02-24T15:26:39;17.63;;;9.97;;
2338;SDS011;1180;51.438;6.978;2023-02-24T15:29:12;14.07;;;9.40;;
2338;SDS011;1180;51.438;6.978;2023-02-24T15:31:47;13.67;;;9.83;;
2338;SDS011;1180;51.438;6.978;2023-02-24T15:34:35;13.60;;;9.60;;
2338;SDS011;1180;51.438;6.978;2023-02-24T15:37:13;14.30;;;8.97;;
2338;SDS011;1180;51.438;6.978;2023-02-24T15:39:44;18.93;;;9.43;;
2338;SDS011;1180;51.438;6.978;2023-02-24T15:44:58;15.53;;;9.30;;
2338;SDS011;1180;51.438;6.978;2023-02-24T15:47:28;12.87;;;8.63;;
2338;SDS011;1180;51.438;6.978;2023-02-24T15:50:04;12.83;;;9.53;;
2338;SDS011;1180;51.438;6.978;2023-02-24T15:52:29;13.00;;;9.47;;
2338;SDS011;1180;51.438;6.978;2023-02-24T15:54:55;14.33;;;10.17;;
2338;SDS011;1180;51.438;6.978;2023-02-24T15:57:23;13.67;;;9.07;;
2338;SDS011;1180;51.438;6.978;2023-02-24T15:59:49;12.23;;;9.03;;
2338;SDS011;1180;51.438;6.978;2023-02-24T16:02:16;11.60;;;7.60;;
2338;SDS011;1180;51.438;6.978;2023-02-24T16:04:44;13.27;;;8.83;;
2338;SDS011;1180;51.438;6.978;2023-02-24T16:07:14;13.70;;;8.33;;
2338;SDS011;1180;51.438;6.978;2023-02-24T16:09:48;12.43;;;9.10;;
2338;SDS011;1180;51.438;6.978;2023-02-24T16:12:16;16.90;;;10.03;;
2338;SDS011;1180;51.438;6.978;2023-02-24T16:14:44;10.90;;;8.90;;
2338;SDS011;1180;51.438;6.978;2023-02-24T16:17:17;13.43;;;11.17;;
2338;SDS011;1180;51.438;6.978;2023-02-24T16:19:56;11.60;;;8.73;;
2338;SDS011;1180;51.438;6.978;2023-02-24T16:22:22;14.93;;;8.70;;
2338;SDS011;1180;51.438;6.978;2023-02-24T16:24:48;12.07;;;6.57;;
2338;SDS011;1180;51.438;6.978;2023-02-24T16:27:15;11.37;;;6.70;;
2338;SDS011;1180;51.438;6.978;2023-02-24T16:29:42;7.80;;;6.57;;
2338;SDS011;1180;51.438;6.978;2023-02-24T16:32:11;11.50;;;7.17;;
2338;SDS011;1180;51.438;6.978;2023-02-24T16:34:37;12.13;;;6.60;;
2338;SDS011;1180;51.438;6.978;2023-02-24T16:37:03;12.57;;;7.03;;
2338;SDS011;1180;51.438;6.978;2023-02-24T16:39:35;8.30;;;6.40;;
2338;SDS011;1180;51.438;6.978;2023-02-24T16:42:01;7.50;;;5.80;;
2338;SDS011;1180;51.438;6.978;2023-02-24T16:44:31;13.23;;;6.30;;
2338;SDS011;1180;51.438;6.978;2023-02-24T16:46:56;11.90;;;6.80;;
2338;SDS011;1180;51.438;6.978;2023-02-24T16:49:21;13.93;;;4.80;;
2338;SDS011;1180;51.438;6.978;2023-02-24T16:51:47;9.43;;;6.10;;
2338;SDS011;1180;51.438;6.978;2023-02-24T16:54:13;8.80;;;4.40;;
2338;SDS011;1180;51.438;6.978;2023-02-24T16:56:38;7.70;;;4.87;;
2338;SDS011;1180;51.438;6.978;2023-02-24T16:59:04;12.30;;;5.90;;
2338;SDS011;1180;51.438;6.978;2023-02-24T17:01:29;11.53;;;5.60;;
2338;SDS011;1180;51.438;6.978;2023-02-24T17:03:54;13.10;;;3.63;;
2338;SDS011;1180;51.438;6.978;2023-02-24T17:06:20;11.03;;;3.70;;
2338;SDS011;1180;51.438;6.978;2023-02-24T17:08:46;12.63;;;4.50;;
2338;SDS011;1180;51.438;6.978;2023-02-24T17:11:13;8.10;;;3.80;;
2338;SDS011;1180;51.438;6.978;2023-02-24T17:13:42;9.13;;;3.70;;
2338;SDS011;1180;51.438;6.978;2023-02-24T17:16:08;6.77;;;4.10;;
2338;SDS011;1180;51.438;6.978;2023-02-24T17:18:34;8.73;;;3.97;;
2338;SDS011;1180;51.438;6.978;2023-02-24T17:21:00;7.70;;;4.00;;
2338;SDS011;1180;51.438;6.978;2023-02-24T17:23:26;10.37;;;4.13;;
2338;SDS011;1180;51.438;6.978;2023-02-24T17:25:52;8.27;;;3.40;;
2338;SDS011;1180;51.438;6.978;2023-02-24T17:28:20;8.30;;;3.40;;
2338;SDS011;1180;51.438;6.978;2023-02-24T17:30:46;11.30;;;4.70;;
2338;SDS011;1180;51.438;6.978;2023-02-24T17:33:11;14.03;;;6.27;;
2338;SDS011;1180;51.438;6.978;2023-02-24T17:35:38;8.93;;;3.70;;
2338;SDS011;1180;51.438;6.978;2023-02-24T17:38:08;9.00;;;3.80;;
2338;SDS011;1180;51.438;6.978;2023-02-24T17:40:37;6.70;;;4.17;;
2338;SDS011;1180;51.438;6.978;2023-02-24T17:43:02;9.00;;;3.27;;
2338;SDS011;1180;51.438;6.978;2023-02-24T17:45:27;10.77;;;4.30;;
2338;SDS011;1180;51.438;6.978;2023-02-24T17:47:53;7.03;;;3.90;;
2338;SDS011;1180;51.438;6.978;2023-02-24T17:50:18;9.30;;;3.90;;
2338;SDS011;1180;51.438;6.978;2023-02-24T17:52:44;10.60;;;3.60;;
2338;SDS011;1180;51.438;6.978;2023-02-24T17:55:09;11.83;;;3.67;;
2338;SDS011;1180;51.438;6.978;2023-02-24T17:57:35;8.57;;;2.50;;
2338;SDS011;1180;51.438;6.978;2023-02-24T18:00:01;9.00;;;3.87;;
2338;SDS011;1180;51.438;6.978;2023-02-24T18:02:27;4.87;;;2.83;;